Snyder, CO (80750)

1:58 AM MST on February 20, 2017 (GMT -0700)
Ray Addition | | Change Station

Elev 4249 ft 40.26 °N, 103.63 °W | Updated 4 seconds ago

Overcast
Overcast
46.7 °F
Feels Like 47 °F
N
2.0
Wind Variable Wind from NW
Gusts 3.0 mph

Today
High -- | Low -- °F
--% Chance of Precip.
Yesterday
High -- | Low -- °F
Precip. -- in
Pressure 29.77 in
Visibility 10.0 miles
Clouds Overcast 11000 ft
Windchill 47 °F
Dew Point 31 °F
Humidity 55%
Rainfall 0.00 in
Snow Depth Not available.
6:40 AM 5:36 PM
Waning Crescent, 36% visible
METAR KFMM 200835Z AUTO 30015KT 10SM OVC110 08/M03 A2977 RMK AO2 T00771033
Pressure 29.77 in
Visibility 10.0 miles
Clouds Overcast 11000 ft
Windchill 47 °F
Dew Point 31 °F
Humidity 55%
Rainfall 0.00 in
Snow Depth Not available.
6:40 AM 5:36 PM
Waning Crescent, 36% visible
METAR KFMM 200835Z AUTO 30015KT 10SM OVC110 08/M03 A2977 RMK AO2 T00771033

Get Your Daily Forecast Email!

Thanks for signing up!

Be on the lookout for a verification email in your inbox.

You'll start receiving the daily forecast at 8 AM.

×

10-Day Weather Forecast

Almanac

Astronomy

Feb. 20, 2017 Rise Set
Actual Time
Civil Twilight
Nautical Twilight
Astronomical Twilight
Moon
Length of Visible Light
Length of Day
Tomorrow will be .
, % of the Moon is Illuminated

Today's Extremes

State Highs State Lows

Community

WunderPhotos

Upload Photos

1,962,540 photos uploaded!

WunderBlog® & News

Nearby

Air Quality

  Air Quality AQ Index Pollutant
Not available.

Snow Depth

Station Depth Elevation

Earthquake Activity

City Distance Mag. Time & Date
Minimum magnitude displayed is 2.5.

Coastal Water Temperatures

Place Temperature

Stations

Nearby Weather Stations

Station Location Temp. Windchill Dew Point Humidity Wind Precip. Elev Updated Type
                   

Watches & Warnings

There are currently no watches in effect.